Time;durP1;ratioP1;P1;durP2;ratioP2;P2;SDS_P1;SDS_P2;PMS_P1;PMS_P2;Temp;Humidity;BMP_temperature;BMP_pressure;BME280_temperature;BME280_humidity;BME280_pressure;Samples;Min_cycle;Max_cycle;Signal;HPM_P1;HPM_P2
2023/05/17 00:08:50;;;;;;;8.5;7.4;;;;;;;-132.3;100;76710;;;;
2023/05/17 00:18:50;;;;;;;8.5;7.4;;;;;;;-132.3;100;76700;;;;
2023/05/17 00:29:51;;;;;;;8.5;7.4;;;;;;;-132.3;100;76710;;;;
2023/05/17 00:40:52;;;;;;;10.2;8;;;;;;;-132.3;100;76710;;;;
2023/05/17 00:50:50;;;;;;;10.2;8;;;;;;;-132.3;100;76710;;;;
2023/05/17 01:01:51;;;;;;;10.2;8;;;;;;;-132.3;100;76740;;;;
2023/05/17 01:12:50;;;;;;;9.7;8.3;;;;;;;-132.3;100;76740;;;;
2023/05/17 01:22:50;;;;;;;9.7;8.3;;;;;;;-132.3;100;76750;;;;
2023/05/17 01:32:50;;;;;;;9.7;8.3;;;;;;;-132.3;100;76750;;;;
2023/05/17 01:42:51;;;;;;;8.9;7.9;;;;;;;-132.3;100;76740;;;;
2023/05/17 01:53:50;;;;;;;8.9;7.9;;;;;;;-132.3;100;76760;;;;
2023/05/17 02:04:50;;;;;;;8.9;7.9;;;;;;;-132.3;100;76770;;;;
2023/05/17 02:14:51;;;;;;;8.2;5.8;;;;;;;-132.3;100;76790;;;;
2023/05/17 02:24:50;;;;;;;8.2;5.8;;;;;;;-132.3;100;76790;;;;
2023/05/17 02:35:51;;;;;;;8.2;5.8;;;;;;;-132.3;100;76800;;;;
2023/05/17 02:46:50;;;;;;;5.6;3.1;;;;;;;-132.3;100;76800;;;;
2023/05/17 02:56:51;;;;;;;5.6;3.1;;;;;;;-132.3;100;76810;;;;
2023/05/17 03:07:50;;;;;;;3.7;2.6;;;;;;;-132.3;100;76830;;;;
2023/05/17 03:17:50;;;;;;;3.7;2.6;;;;;;;-132.3;100;76850;;;;
2023/05/17 03:28:50;;;;;;;3.7;2.6;;;;;;;-132.3;100;76860;;;;
2023/05/17 03:38:50;;;;;;;5.7;2.1;;;;;;;-132.3;100;76870;;;;
2023/05/17 03:49:50;;;;;;;5.7;2.1;;;;;;;-132.3;100;76890;;;;
2023/05/17 03:59:51;;;;;;;5.7;2.1;;;;;;;-132.3;100;76910;;;;
2023/05/17 04:10:50;;;;;;;5.4;2.5;;;;;;;-132.3;100;76920;;;;
2023/05/17 04:20:50;;;;;;;5.4;2.5;;;;;;;-132.3;100;76920;;;;
2023/05/17 04:31:50;;;;;;;5.4;2.5;;;;;;;-132.3;100;76930;;;;
2023/05/17 04:41:50;;;;;;;3.8;2.4;;;;;;;-132.3;100;76930;;;;
2023/05/17 04:52:50;;;;;;;3.8;2.4;;;;;;;-132.3;100;76920;;;;
2023/05/17 05:02:50;;;;;;;3.8;2.4;;;;;;;-132.3;100;76920;;;;
2023/05/17 05:12:50;;;;;;;4.6;2.7;;;;;;;-132.3;100;76930;;;;
2023/05/17 05:23:51;;;;;;;4.6;2.7;;;;;;;-132.3;100;76930;;;;
2023/05/17 05:34:50;;;;;;;4.6;2.7;;;;;;;-132.3;100;76920;;;;
2023/05/17 05:44:51;;;;;;;4.2;2.1;;;;;;;-132.3;100;76910;;;;
2023/05/17 05:55:51;;;;;;;4.2;2.1;;;;;;;-132.3;100;76920;;;;
2023/05/17 06:06:51;;;;;;;3.7;2.3;;;;;;;-132.3;100;76930;;;;
2023/05/17 06:16:51;;;;;;;3.7;2.3;;;;;;;-132.3;100;76910;;;;
2023/05/17 06:27:50;;;;;;;3.7;2.3;;;;;;;-132.3;100;76920;;;;
2023/05/17 06:37:51;;;;;;;6.6;4.5;;;;;;;-132.3;100;76940;;;;
2023/05/17 06:48:50;;;;;;;6.6;4.5;;;;;;;-132.3;100;76920;;;;
2023/05/17 06:58:50;;;;;;;6.6;4.5;;;;;;;-132.3;100;76930;;;;
2023/05/17 07:08:51;;;;;;;8.3;5.2;;;;;;;-132.3;100;76950;;;;
2023/05/17 07:19:51;;;;;;;8.3;5.2;;;;;;;-132.3;100;76950;;;;
2023/05/17 07:29:51;;;;;;;8.3;5.2;;;;;;;-132.3;100;76960;;;;
2023/05/17 07:39:51;;;;;;;7;5.4;;;;;;;-132.3;100;76970;;;;
2023/05/17 07:50:51;;;;;;;7;5.4;;;;;;;-132.3;100;76980;;;;
2023/05/17 08:01:51;;;;;;;7;5.4;;;;;;;-132.3;100;76990;;;;
2023/05/17 08:12:51;;;;;;;6.1;4.2;;;;;;;-132.3;100;76990;;;;
2023/05/17 08:22:51;;;;;;;6.1;4.2;;;;;;;-132.3;100;76970;;;;
2023/05/17 08:33:51;;;;;;;6.1;4.2;;;;;;;-132.3;100;76980;;;;
2023/05/17 08:43:50;;;;;;;5.7;3;;;;;;;-132.3;100;77010;;;;
2023/05/17 08:53:51;;;;;;;5.7;3;;;;;;;-132.3;100;77020;;;;
2023/05/17 09:03:51;;;;;;;5.7;3;;;;;;;-132.3;100;77050;;;;
2023/05/17 09:13:51;;;;;;;4;2.1;;;;;;;-132.3;100;77080;;;;
2023/05/17 09:23:51;;;;;;;4;2.1;;;;;;;-132.3;100;77090;;;;
2023/05/17 09:34:51;;;;;;;4;2.1;;;;;;;-132.3;100;77110;;;;
2023/05/17 09:44:52;;;;;;;4.4;1.9;;;;;;;-132.3;100;77130;;;;
2023/05/17 09:54:51;;;;;;;4.4;1.9;;;;;;;-132.3;100;77140;;;;
2023/05/17 10:04:51;;;;;;;4.4;1.9;;;;;;;-132.3;100;77150;;;;
2023/05/17 10:15:51;;;;;;;3.8;2.2;;;;;;;-132.3;100;77180;;;;
2023/05/17 10:26:51;;;;;;;3.8;2.2;;;;;;;-132.3;100;77190;;;;
2023/05/17 10:37:51;;;;;;;7.4;3.7;;;;;;;-132.3;100;77220;;;;
2023/05/17 10:48:51;;;;;;;7.4;3.7;;;;;;;-132.3;100;77270;;;;
2023/05/17 10:58:51;;;;;;;7.4;3.7;;;;;;;-132.3;100;77300;;;;
2023/05/17 11:09:51;;;;;;;6.8;4.6;;;;;;;-132.3;100;77310;;;;
2023/05/17 11:19:51;;;;;;;9.1;4.9;;;;;;;-132.3;100;77320;;;;
2023/05/17 11:30:52;;;;;;;9.1;4.9;;;;;;;-132.3;100;77330;;;;
2023/05/17 11:41:51;;;;;;;9.1;4.9;;;;;;;-132.3;100;77320;;;;
2023/05/17 11:52:53;;;;;;;9.9;6.5;;;;;;;-132.3;100;77330;;;;
2023/05/17 12:02:51;;;;;;;9.9;6.5;;;;;;;-132.3;100;77340;;;;
2023/05/17 12:13:51;;;;;;;9.9;6.5;;;;;;;-132.3;100;77360;;;;
2023/05/17 12:23:51;;;;;;;8.6;5.7;;;;;;;-132.3;100;77360;;;;
2023/05/17 12:33:51;;;;;;;8.6;5.7;;;;;;;-132.3;100;77360;;;;
2023/05/17 12:43:51;;;;;;;8.6;5.7;;;;;;;-132.3;100;77390;;;;
2023/05/17 12:54:51;;;;;;;8.8;5.2;;;;;;;-132.3;100;77430;;;;
2023/05/17 13:05:51;;;;;;;8.8;5.2;;;;;;;-132.3;100;77450;;;;
2023/05/17 13:16:51;;;;;;;12.5;5.6;;;;;;;-132.3;100;77510;;;;
2023/05/17 13:27:54;;;;;;;12.5;5.6;;;;;;;-132.3;100;77520;;;;
2023/05/17 13:37:52;;;;;;;12.5;5.6;;;;;;;-132.3;100;77570;;;;
2023/05/17 13:47:51;;;;;;;7.6;4.8;;;;;;;-132.3;100;77600;;;;
2023/05/17 13:57:51;;;;;;;7.6;4.8;;;;;;;-132.3;100;77600;;;;
2023/05/17 14:08:52;;;;;;;7.6;4.8;;;;;;;-132.3;100;77630;;;;
2023/05/17 14:18:51;;;;;;;11.4;7.3;;;;;;;-132.3;100;77640;;;;
2023/05/17 14:29:51;;;;;;;11.4;7.3;;;;;;;-132.3;100;77650;;;;
2023/05/17 14:40:51;;;;;;;11.4;7.3;;;;;;;-132.3;100;77660;;;;
2023/05/17 14:51:51;;;;;;;14.3;9.9;;;;;;;-132.3;100;77670;;;;
2023/05/17 15:02:51;;;;;;;14.3;9.9;;;;;;;-132.3;100;77660;;;;
2023/05/17 15:12:51;;;;;;;14.3;9.9;;;;;;;-132.3;100;77670;;;;
2023/05/17 15:22:51;;;;;;;16.9;10.9;;;;;;;-132.3;100;77690;;;;
2023/05/17 15:32:51;;;;;;;16.9;10.9;;;;;;;-132.3;100;77700;;;;
2023/05/17 15:42:51;;;;;;;16.9;10.9;;;;;;;-132.3;100;77740;;;;
2023/05/17 15:52:51;;;;;;;15.6;10.1;;;;;;;-132.3;100;77760;;;;
2023/05/17 16:03:51;;;;;;;15.6;10.1;;;;;;;-132.3;100;77760;;;;
2023/05/17 16:13:51;;;;;;;15.6;10.1;;;;;;;-132.3;100;77760;;;;
2023/05/17 16:23:51;;;;;;;11.8;6.8;;;;;;;-132.3;100;77780;;;;
2023/05/17 16:34:51;;;;;;;11.8;6.8;;;;;;;-132.3;100;77790;;;;
2023/05/17 16:45:51;;;;;;;11.8;6.8;;;;;;;-132.3;100;77820;;;;
2023/05/17 16:55:51;;;;;;;18.9;10.6;;;;;;;-132.3;100;77810;;;;
2023/05/17 17:05:51;;;;;;;18.9;10.6;;;;;;;-132.3;100;77820;;;;
2023/05/17 17:16:51;;;;;;;17.9;10.6;;;;;;;-132.3;100;77830;;;;
2023/05/17 17:26:51;;;;;;;17.9;10.6;;;;;;;-132.3;100;77850;;;;
2023/05/17 17:36:51;;;;;;;17.9;10.6;;;;;;;-132.3;100;77860;;;;
2023/05/17 17:47:51;;;;;;;20.2;13.1;;;;;;;-132.3;100;77860;;;;
2023/05/17 17:57:51;;;;;;;20.2;13.1;;;;;;;-132.3;100;77870;;;;
2023/05/17 18:07:51;;;;;;;20.2;13.1;;;;;;;-132.3;100;77870;;;;
2023/05/17 18:17:52;;;;;;;18.7;11.4;;;;;;;-132.3;100;77880;;;;
2023/05/17 18:27:51;;;;;;;18.7;11.4;;;;;;;-132.3;100;77890;;;;
2023/05/17 18:37:51;;;;;;;18.7;11.4;;;;;;;-132.3;100;77890;;;;
2023/05/17 18:47:51;;;;;;;20.9;14.3;;;;;;;-132.3;100;77910;;;;
2023/05/17 18:58:51;;;;;;;20.9;14.3;;;;;;;-132.3;100;77910;;;;
2023/05/17 19:08:51;;;;;;;20.9;14.3;;;;;;;-132.3;100;77910;;;;
2023/05/17 19:19:51;;;;;;;20.8;13.7;;;;;;;-132.3;100;77910;;;;
2023/05/17 19:30:51;;;;;;;20.8;13.7;;;;;;;-132.3;100;77920;;;;
2023/05/17 19:40:51;;;;;;;20.8;13.7;;;;;;;-132.3;100;77920;;;;
2023/05/17 19:51:52;;;;;;;18.8;11.7;;;;;;;-132.3;100;77940;;;;
2023/05/17 20:01:51;;;;;;;18.8;11.7;;;;;;;-132.3;100;77940;;;;
2023/05/17 20:11:51;;;;;;;18.8;11.7;;;;;;;-132.3;100;77940;;;;
2023/05/17 20:22:51;;;;;;;17.5;12.6;;;;;;;-132.3;100;77950;;;;
2023/05/17 20:33:51;;;;;;;17.5;12.6;;;;;;;-132.3;100;77940;;;;
2023/05/17 20:44:52;;;;;;;17.5;12.6;;;;;;;-132.3;100;77940;;;;
2023/05/17 20:55:51;;;;;;;25.3;15.9;;;;;;;-132.3;100;77950;;;;
2023/05/17 21:05:51;;;;;;;25.3;15.9;;;;;;;-132.3;100;77940;;;;
2023/05/17 21:15:51;;;;;;;23.9;17.9;;;;;;;-132.3;100;77940;;;;
2023/05/17 21:25:51;;;;;;;23.9;17.9;;;;;;;-132.3;100;77930;;;;
2023/05/17 21:35:51;;;;;;;23.9;17.9;;;;;;;-132.3;100;77940;;;;
2023/05/17 21:46:51;;;;;;;27.1;20.3;;;;;;;-132.3;100;77940;;;;
2023/05/17 21:57:51;;;;;;;27.1;20.3;;;;;;;-132.3;100;77940;;;;
2023/05/17 22:07:51;;;;;;;27.1;20.3;;;;;;;-132.3;100;77940;;;;
2023/05/17 22:17:51;;;;;;;29.7;20.2;;;;;;;-132.3;100;77950;;;;
2023/05/17 22:27:51;;;;;;;29.7;20.2;;;;;;;-132.3;100;77960;;;;
2023/05/17 22:38:51;;;;;;;29.7;20.2;;;;;;;-132.3;100;77960;;;;
2023/05/17 22:48:51;;;;;;;26.1;16.8;;;;;;;-132.3;100;77960;;;;
2023/05/17 22:59:51;;;;;;;26.1;16.8;;;;;;;-132.3;100;77970;;;;
2023/05/17 23:10:51;;;;;;;26.1;16.8;;;;;;;-132.3;100;77960;;;;
2023/05/17 23:20:51;;;;;;;20.1;15.6;;;;;;;-132.3;100;77960;;;;
2023/05/17 23:31:51;;;;;;;20.1;15.6;;;;;;;-132.3;100;77960;;;;
2023/05/17 23:41:52;;;;;;;20.1;15.6;;;;;;;-132.3;100;77950;;;;
2023/05/17 23:51:51;;;;;;;34.2;23.1;;;;;;;-132.3;100;77950;;;;
